Canadian, TX (79014)

10:13 AM CDT on August 27, 2016 (GMT -0500)
APRSWXNET | | Change Station

Elev 2434 ft 35.90 °N, 100.39 °W | Updated 28 minutes ago

Clear
Clear
74 °F
Feels Like 75 °F
N
1
Wind Variable Wind from NW
Gusts 4.0 mph

Today
High -- | Low -- °F
--% Chance of Precip.
Yesterday
High -- | Low -- °F
Precip. -- in
Pressure 30.07 in
Visibility 10.0 miles
Clouds Clear
Heat Index 75 °F
Dew Point 65 °F
Humidity 73%
Rainfall in
Snow Depth Not available.
7:09 AM 8:14 PM
Waning Crescent, 24% visible
METAR KHHF 271455Z AUTO 17004KT 10SM CLR 24/18 A3007 RMK AO2 T02430181
Pressure 30.07 in
Visibility 10.0 miles
Clouds Clear
Heat Index 75 °F
Dew Point 65 °F
Humidity 73%
Rainfall in
Snow Depth Not available.
7:09 AM 8:14 PM
Waning Crescent, 24% visible
METAR KHHF 271455Z AUTO 17004KT 10SM CLR 24/18 A3007 RMK AO2 T02430181

10-Day Weather Forecast

Almanac

Astronomy

Aug. 27, 2016 Rise Set
Actual Time
Civil Twilight
Nautical Twilight
Astronomical Twilight
Moon
Length of Visible Light
Length of Day
Tomorrow will be .
, % of the Moon is Illuminated

Today's Extremes

State Highs State Lows

Community

WunderPhotos

Upload Photos

1,935,354 photos uploaded!

WunderBlog® & News

Nearby

Air Quality

  Air Quality AQ Index Pollutant
Not available.

Snow Depth

Station Depth Elevation

Earthquake Activity

City Distance Mag. Time & Date
Minimum magnitude displayed is 2.5.

Coastal Water Temperatures

Place Temperature

Stations

Nearby Weather Stations

Station Location Temp. Windchill Dew Point Humidity Wind Precip. Elev Updated Type
                   

Watches & Warnings

There are currently no watches in effect.